createdAt,value
2017-09-09T00:02:12.306Z,94.30
2017-09-09T00:04:39.766Z,94.30
2017-09-09T00:07:07.232Z,94.30
2017-09-09T00:09:34.696Z,94.40
2017-09-09T00:12:02.150Z,94.50
2017-09-09T00:14:29.622Z,94.70
2017-09-09T00:16:57.090Z,94.70
2017-09-09T00:19:25.299Z,94.90
2017-09-09T00:21:52.749Z,94.90
2017-09-09T00:24:20.192Z,94.90
2017-09-09T00:26:47.660Z,95.00
2017-09-09T00:29:15.112Z,94.90
2017-09-09T00:31:42.582Z,94.90
2017-09-09T00:34:10.030Z,95.10
2017-09-09T00:36:37.486Z,95.00
2017-09-09T00:39:04.942Z,95.30
2017-09-09T00:41:32.398Z,95.30
2017-09-09T00:43:59.871Z,95.50
2017-09-09T00:46:27.328Z,95.50
2017-09-09T00:48:54.792Z,95.60
2017-09-09T00:51:22.269Z,95.60
2017-09-09T00:53:49.736Z,95.60
2017-09-09T00:56:17.194Z,95.50
2017-09-09T00:58:44.637Z,95.50
2017-09-09T01:01:12.093Z,95.50
2017-09-09T01:03:39.549Z,95.60
2017-09-09T01:06:06.995Z,95.40
2017-09-09T01:08:34.447Z,95.50
2017-09-09T01:11:01.902Z,95.40
2017-09-09T01:13:29.391Z,95.40
2017-09-09T01:15:56.853Z,95.40
2017-09-09T01:18:24.302Z,95.50
2017-09-09T01:20:51.763Z,95.60
2017-09-09T01:23:19.259Z,95.70
2017-09-09T01:25:46.704Z,95.90
2017-09-09T01:28:14.160Z,95.90
2017-09-09T01:30:42.397Z,95.90
2017-09-09T01:33:09.846Z,95.90
2017-09-09T01:35:37.301Z,96.00
2017-09-09T01:38:04.749Z,96.00
2017-09-09T01:40:32.230Z,95.90
2017-09-09T01:42:59.691Z,96.00
2017-09-09T01:45:27.167Z,96.00
2017-09-09T01:47:55.383Z,95.90
2017-09-09T01:50:22.853Z,95.80
2017-09-09T01:52:50.309Z,95.80
2017-09-09T01:55:17.792Z,95.90
2017-09-09T01:57:45.236Z,96.10
2017-09-09T02:00:12.690Z,96.20
2017-09-09T02:02:40.154Z,96.40
2017-09-09T02:05:07.617Z,96.40
2017-09-09T02:07:35.089Z,96.50
2017-09-09T02:10:03.316Z,96.60
2017-09-09T02:12:30.802Z,96.50
2017-09-09T02:14:58.252Z,96.60
2017-09-09T02:17:25.759Z,96.60
2017-09-09T02:19:53.967Z,96.70
2017-09-09T02:22:21.427Z,96.70
2017-09-09T02:24:48.878Z,96.80
2017-09-09T02:27:16.331Z,96.70
2017-09-09T02:32:17.843Z,96.80
2017-09-09T02:34:46.084Z,96.70
2017-09-09T02:37:13.540Z,96.70
2017-09-09T02:39:40.984Z,96.60
2017-09-09T02:42:08.446Z,96.60
2017-09-09T02:44:35.890Z,96.50
2017-09-09T02:47:03.350Z,96.40
2017-09-09T02:49:30.808Z,96.40
2017-09-09T02:51:58.272Z,96.50
2017-09-09T02:54:25.720Z,96.50
2017-09-09T02:56:53.180Z,96.30
2017-09-09T02:59:20.637Z,96.30
2017-09-09T03:01:48.101Z,96.40
2017-09-09T03:04:15.559Z,96.40
2017-09-09T03:06:43.012Z,96.40
2017-09-09T03:09:10.475Z,96.50
2017-09-09T03:11:37.929Z,96.50
2017-09-09T03:14:05.373Z,96.50
2017-09-09T03:16:32.874Z,96.60
2017-09-09T03:19:00.343Z,96.70
2017-09-09T03:21:27.814Z,96.60
2017-09-09T03:23:55.259Z,96.50
2017-09-09T03:26:22.733Z,96.60
2017-09-09T03:28:50.177Z,96.60
2017-09-09T03:31:17.670Z,96.50
2017-09-09T03:33:45.113Z,96.60
2017-09-09T03:36:12.582Z,96.60
2017-09-09T03:38:40.018Z,96.60
2017-09-09T03:41:07.475Z,96.70
2017-09-09T03:43:34.926Z,96.80
2017-09-09T03:46:02.398Z,96.80
2017-09-09T03:48:29.844Z,97.00
2017-09-09T03:50:57.318Z,96.90
2017-09-09T03:53:24.762Z,96.90
2017-09-09T03:55:52.261Z,97.00
2017-09-09T03:58:20.463Z,96.90
2017-09-09T04:00:47.929Z,96.90
2017-09-09T04:03:15.394Z,96.90
2017-09-09T04:05:42.845Z,96.90
2017-09-09T04:08:10.308Z,96.70
2017-09-09T04:10:37.760Z,96.60
2017-09-09T04:13:05.237Z,96.60
2017-09-09T04:15:32.684Z,96.40
2017-09-09T04:18:00.134Z,96.40
2017-09-09T04:20:27.584Z,96.40
2017-09-09T04:22:55.029Z,96.60
2017-09-09T04:25:22.485Z,96.10
2017-09-09T04:27:49.944Z,96.00
2017-09-09T04:30:17.404Z,95.90
2017-09-09T04:32:44.860Z,96.00
2017-09-09T04:35:12.304Z,96.00
2017-09-09T04:37:39.830Z,95.90
2017-09-09T04:40:08.052Z,95.90
2017-09-09T04:42:35.510Z,95.80
2017-09-09T04:45:02.961Z,95.80
2017-09-09T04:47:30.418Z,96.00
2017-09-09T04:49:57.881Z,96.00
2017-09-09T04:52:25.329Z,96.00
2017-09-09T04:54:52.778Z,96.20
2017-09-09T04:57:20.249Z,96.10
2017-09-09T04:59:47.698Z,96.20
2017-09-09T05:02:15.147Z,96.40
2017-09-09T05:04:42.628Z,96.40
2017-09-09T05:07:10.117Z,96.30
2017-09-09T05:09:37.535Z,96.30
2017-09-09T05:12:05.002Z,96.30
2017-09-09T05:14:32.462Z,96.30
2017-09-09T05:16:59.927Z,96.20
2017-09-09T05:19:27.380Z,96.10
2017-09-09T05:21:54.841Z,96.10
2017-09-09T05:24:22.295Z,95.90
2017-09-09T05:26:49.747Z,96.00
2017-09-09T05:29:17.206Z,96.00
2017-09-09T05:31:44.671Z,96.10
2017-09-09T05:34:12.124Z,96.10
2017-09-09T05:36:39.578Z,96.10
2017-09-09T05:39:07.014Z,96.20
2017-09-09T05:41:34.467Z,96.10
2017-09-09T05:44:01.911Z,96.20
2017-09-09T05:46:29.368Z,96.00
2017-09-09T05:48:56.812Z,96.00
2017-09-09T05:51:24.271Z,96.00
2017-09-09T05:53:51.718Z,96.00
2017-09-09T05:56:19.177Z,96.00
2017-09-09T05:58:46.638Z,96.10
2017-09-09T06:01:14.096Z,96.10
2017-09-09T06:03:41.529Z,96.30
2017-09-09T06:06:09.753Z,96.30
2017-09-09T06:08:37.202Z,96.30
2017-09-09T06:11:04.657Z,96.50
2017-09-09T06:13:32.102Z,96.50
2017-09-09T06:15:59.563Z,96.40
2017-09-09T06:18:27.014Z,96.60
2017-09-09T06:20:54.465Z,96.50
2017-09-09T06:23:21.911Z,96.60
2017-09-09T06:25:49.360Z,96.70
2017-09-09T06:28:16.824Z,96.80
2017-09-09T06:30:44.264Z,96.90
2017-09-09T06:33:12.485Z,97.00
2017-09-09T06:35:39.935Z,97.00
2017-09-09T06:38:07.381Z,97.50
2017-09-09T06:40:34.844Z,97.00
2017-09-09T06:43:02.299Z,97.10
2017-09-09T06:45:29.746Z,97.20
2017-09-09T06:47:57.202Z,97.10
2017-09-09T06:50:24.653Z,97.10
2017-09-09T06:52:52.102Z,97.10
2017-09-09T06:55:19.573Z,97.20
2017-09-09T06:57:47.024Z,97.00
2017-09-09T07:00:14.479Z,96.80
2017-09-09T07:02:41.919Z,96.70
2017-09-09T07:05:10.128Z,96.90
2017-09-09T07:07:37.582Z,96.90
2017-09-09T07:10:05.037Z,97.30
2017-09-09T07:12:32.473Z,97.60
2017-09-09T07:14:59.921Z,97.80
2017-09-09T07:17:28.137Z,98.00
2017-09-09T07:19:55.590Z,98.00
2017-09-09T07:22:23.084Z,98.40
2017-09-09T07:24:50.536Z,98.50
2017-09-09T07:27:18.000Z,99.10
2017-09-09T07:29:45.462Z,99.40
2017-09-09T07:32:12.897Z,99.30
2017-09-09T07:34:40.356Z,99.90
2017-09-09T07:37:07.817Z,99.90
2017-09-09T07:39:35.253Z,99.90
2017-09-09T07:42:02.703Z,99.90
2017-09-09T07:44:30.157Z,99.90
2017-09-09T07:46:57.601Z,99.90
2017-09-09T07:49:25.062Z,99.90
2017-09-09T07:51:52.508Z,99.90
2017-09-09T07:54:19.954Z,99.90
2017-09-09T07:56:47.401Z,99.90
2017-09-09T07:59:15.616Z,99.90
2017-09-09T08:01:43.058Z,99.90
2017-09-09T08:04:10.506Z,99.90
2017-09-09T08:06:37.965Z,99.90
2017-09-09T08:09:05.415Z,99.90
2017-09-09T08:11:32.856Z,99.90
2017-09-09T08:14:01.089Z,99.90
2017-09-09T08:16:28.543Z,99.90
2017-09-09T08:18:56.010Z,99.90
2017-09-09T08:21:23.460Z,99.90
2017-09-09T08:23:50.928Z,99.90
2017-09-09T08:26:18.382Z,99.90
2017-09-09T08:28:45.845Z,99.90
2017-09-09T08:31:13.299Z,99.90
2017-09-09T08:33:40.737Z,99.90
2017-09-09T08:36:08.202Z,99.90
2017-09-09T08:38:35.647Z,99.90
2017-09-09T08:41:03.115Z,99.90
2017-09-09T08:43:30.584Z,99.90
2017-09-09T08:45:58.038Z,99.90
2017-09-09T08:48:25.494Z,99.90
2017-09-09T08:50:52.938Z,99.90
2017-09-09T08:53:20.393Z,99.90
2017-09-09T08:55:47.854Z,99.90
2017-09-09T08:58:15.310Z,99.90
2017-09-09T09:00:42.758Z,99.90
2017-09-09T09:03:10.204Z,99.90
2017-09-09T09:05:37.653Z,99.90
2017-09-09T09:08:05.106Z,99.90
2017-09-09T09:10:32.549Z,99.90
2017-09-09T09:13:00.002Z,99.90
2017-09-09T09:15:27.454Z,99.90
2017-09-09T09:17:54.918Z,99.90
2017-09-09T09:20:22.440Z,99.90
2017-09-09T09:22:49.879Z,99.90
2017-09-09T09:25:17.329Z,99.90
2017-09-09T09:27:44.773Z,99.90
2017-09-09T09:30:12.229Z,99.90
2017-09-09T09:32:39.677Z,99.90
2017-09-09T09:35:07.128Z,99.90
2017-09-09T09:37:34.572Z,99.90
2017-09-09T09:40:02.023Z,99.90
2017-09-09T09:42:29.454Z,99.90
2017-09-09T09:44:56.906Z,99.90
2017-09-09T09:47:25.120Z,99.90
2017-09-09T09:49:52.586Z,99.90
2017-09-09T09:52:20.025Z,99.90
2017-09-09T09:54:47.481Z,99.90
2017-09-09T09:57:14.930Z,99.90
2017-09-09T09:59:43.129Z,99.90
2017-09-09T10:02:10.577Z,99.90
2017-09-09T10:04:38.025Z,99.90
2017-09-09T10:07:05.474Z,99.90
2017-09-09T10:09:33.676Z,99.90
2017-09-09T10:12:01.163Z,99.90
2017-09-09T10:14:28.719Z,99.90
2017-09-09T10:16:56.155Z,99.90
2017-09-09T10:19:23.600Z,99.90
2017-09-09T10:21:51.050Z,99.90
2017-09-09T10:24:24.240Z,99.90
2017-09-09T10:26:51.689Z,99.90
2017-09-09T10:29:19.132Z,99.90
2017-09-09T10:31:46.586Z,99.90
2017-09-09T10:34:14.025Z,99.90
2017-09-09T10:36:42.265Z,99.90
2017-09-09T10:39:09.702Z,99.90
2017-09-09T10:41:37.139Z,99.90
2017-09-09T10:44:04.589Z,99.90
2017-09-09T10:46:32.793Z,99.90
2017-09-09T10:49:00.258Z,99.90
2017-09-09T10:51:27.697Z,99.90
2017-09-09T10:53:55.146Z,99.90
2017-09-09T10:56:22.581Z,99.90
2017-09-09T10:58:50.793Z,99.90
2017-09-09T11:01:18.247Z,99.90
2017-09-09T11:03:45.704Z,99.90
2017-09-09T11:06:13.137Z,99.90
2017-09-09T11:08:40.571Z,99.90
2017-09-09T11:11:08.791Z,99.90
2017-09-09T11:13:36.229Z,99.90
2017-09-09T11:16:03.670Z,99.90
2017-09-09T11:18:31.869Z,99.90
2017-09-09T11:20:59.309Z,99.90
2017-09-09T11:23:26.756Z,99.90
2017-09-09T11:25:54.973Z,99.90
2017-09-09T11:28:22.413Z,99.90
2017-09-09T11:30:49.855Z,99.90
2017-09-09T11:33:17.292Z,99.90
2017-09-09T11:35:45.507Z,99.90
2017-09-09T11:38:12.944Z,99.90
2017-09-09T11:40:40.400Z,99.90
2017-09-09T11:43:07.845Z,99.90
2017-09-09T11:45:36.057Z,99.90
2017-09-09T11:48:03.596Z,99.90
2017-09-09T11:50:31.056Z,99.90
2017-09-09T11:52:58.505Z,99.90
2017-09-09T11:55:25.950Z,99.90
2017-09-09T11:57:54.158Z,99.90
2017-09-09T12:00:21.598Z,99.90
2017-09-09T12:02:49.045Z,99.90
2017-09-09T12:05:16.486Z,99.90
2017-09-09T12:07:44.696Z,99.90
2017-09-09T12:10:12.131Z,99.90
2017-09-09T12:12:39.584Z,99.90
2017-09-09T12:15:07.024Z,99.90
2017-09-09T12:17:34.475Z,99.90
2017-09-09T12:20:01.916Z,99.90
2017-09-09T12:22:29.350Z,99.90
2017-09-09T12:24:56.797Z,99.90
2017-09-09T12:27:24.235Z,99.90
2017-09-09T12:29:51.687Z,99.90
2017-09-09T12:32:19.137Z,99.90
2017-09-09T12:34:46.594Z,99.90
2017-09-09T12:37:14.817Z,98.90
2017-09-09T12:39:42.249Z,99.10
2017-09-09T12:42:09.693Z,97.70
2017-09-09T12:44:37.920Z,97.60
2017-09-09T12:47:05.361Z,97.60
2017-09-09T12:49:32.826Z,96.10
2017-09-09T12:52:00.262Z,94.40
2017-09-09T12:54:27.739Z,95.00
2017-09-09T12:56:55.193Z,95.70
2017-09-09T12:59:22.649Z,96.90
2017-09-09T13:01:50.109Z,97.80
2017-09-09T13:04:17.577Z,97.30
2017-09-09T13:06:45.020Z,95.80
2017-09-09T13:09:12.479Z,94.90
2017-09-09T13:11:39.925Z,94.90
2017-09-09T13:14:07.377Z,95.50
2017-09-09T13:16:34.844Z,96.00
2017-09-09T13:19:02.286Z,96.20
2017-09-09T13:21:29.749Z,96.20
2017-09-09T13:23:57.202Z,96.80
2017-09-09T13:26:24.657Z,96.80
2017-09-09T13:28:52.105Z,97.10
2017-09-09T13:31:19.548Z,96.50
2017-09-09T13:33:47.784Z,96.60
2017-09-09T13:36:15.220Z,96.60
2017-09-09T13:38:42.681Z,96.60
2017-09-09T13:41:10.163Z,96.40
2017-09-09T13:43:37.598Z,96.50
2017-09-09T13:46:05.061Z,95.90
2017-09-09T13:48:32.533Z,96.50
2017-09-09T13:50:59.987Z,96.50
2017-09-09T13:53:27.440Z,96.70
2017-09-09T13:55:54.869Z,96.20
2017-09-09T13:58:22.318Z,96.40
2017-09-09T14:00:49.767Z,96.70
2017-09-09T14:03:17.242Z,96.80
2017-09-09T14:05:44.675Z,96.80
2017-09-09T14:08:12.119Z,96.60
2017-09-09T14:10:40.325Z,97.00
2017-09-09T14:13:07.777Z,97.00
2017-09-09T14:15:35.234Z,96.90
2017-09-09T14:18:02.676Z,96.70
2017-09-09T14:20:30.136Z,97.10
2017-09-09T14:22:57.599Z,97.10
2017-09-09T14:25:25.042Z,96.90
2017-09-09T14:27:52.484Z,97.20
2017-09-09T14:30:20.698Z,96.20
2017-09-09T14:32:48.146Z,96.10
2017-09-09T14:35:15.610Z,95.20
2017-09-09T14:37:43.055Z,95.30
2017-09-09T14:40:10.484Z,95.40
2017-09-09T14:42:38.693Z,95.10
2017-09-09T14:45:06.146Z,95.00
2017-09-09T14:47:33.602Z,95.20
2017-09-09T14:50:01.049Z,95.60
2017-09-09T14:52:28.509Z,95.70
2017-09-09T14:54:55.950Z,95.80
2017-09-09T14:57:23.427Z,95.90
2017-09-09T14:59:50.860Z,96.20
2017-09-09T15:02:18.306Z,96.00
2017-09-09T15:04:46.515Z,97.10
2017-09-09T15:07:13.970Z,97.10
2017-09-09T15:09:41.426Z,97.80
2017-09-09T15:12:08.894Z,98.00
2017-09-09T15:14:36.347Z,98.00
2017-09-09T15:17:03.800Z,98.40
2017-09-09T15:19:31.254Z,98.80
2017-09-09T15:21:58.689Z,99.10
2017-09-09T15:24:26.146Z,99.50
2017-09-09T15:26:53.607Z,99.20
2017-09-09T15:29:21.067Z,99.60
2017-09-09T15:31:48.498Z,99.40
2017-09-09T15:34:16.714Z,99.80
2017-09-09T15:36:44.152Z,99.80
2017-09-09T15:39:11.619Z,99.90
2017-09-09T15:41:39.053Z,99.90
2017-09-09T15:44:07.268Z,99.90
2017-09-09T15:46:34.714Z,99.90
2017-09-09T15:49:02.165Z,99.90
2017-09-09T15:51:29.613Z,99.90
2017-09-09T15:53:57.066Z,99.90
2017-09-09T15:56:24.529Z,99.90
2017-09-09T15:58:51.966Z,99.90
2017-09-09T16:01:19.435Z,99.90
2017-09-09T16:03:46.872Z,99.90
2017-09-09T16:06:14.331Z,99.90
2017-09-09T16:08:42.540Z,99.90
2017-09-09T16:11:09.988Z,99.90
2017-09-09T16:13:37.464Z,99.90
2017-09-09T16:16:04.919Z,99.90
2017-09-09T16:18:32.373Z,99.90
2017-09-09T16:20:59.831Z,99.90
2017-09-09T16:23:27.294Z,99.90
2017-09-09T16:25:54.750Z,99.90
2017-09-09T16:28:22.220Z,99.90
2017-09-09T16:30:49.654Z,99.90
2017-09-09T16:33:17.108Z,99.90
2017-09-09T16:35:44.562Z,99.90
2017-09-09T16:38:12.019Z,99.90
2017-09-09T16:40:39.473Z,99.90
2017-09-09T16:43:06.927Z,99.90
2017-09-09T16:45:34.376Z,99.90
2017-09-09T16:48:01.840Z,99.90
2017-09-09T16:50:29.291Z,99.90
2017-09-09T16:52:56.746Z,99.90
2017-09-09T16:55:24.203Z,99.90
2017-09-09T16:57:51.628Z,99.90
2017-09-09T17:00:19.848Z,99.90
2017-09-09T17:02:47.290Z,99.90
2017-09-09T17:05:14.740Z,99.90
2017-09-09T17:07:42.239Z,99.90
2017-09-09T17:10:09.706Z,99.90
2017-09-09T17:12:37.148Z,99.90
2017-09-09T17:15:04.605Z,99.90
2017-09-09T17:17:33.701Z,99.90
2017-09-09T17:20:01.157Z,99.90
2017-09-09T17:22:28.712Z,99.90
2017-09-09T17:24:56.200Z,99.90
2017-09-09T17:27:23.650Z,99.90
2017-09-09T17:29:51.153Z,99.90
2017-09-09T17:32:18.633Z,99.90
2017-09-09T17:34:46.105Z,99.90
2017-09-09T17:37:13.581Z,99.90
2017-09-09T17:39:41.067Z,99.90
2017-09-09T17:42:09.271Z,99.90
2017-09-09T17:44:36.725Z,99.90
2017-09-09T17:47:04.173Z,99.90
2017-09-09T17:49:31.613Z,99.90
2017-09-09T17:51:59.054Z,99.90
2017-09-09T17:54:27.267Z,99.90
2017-09-09T17:56:54.715Z,99.90
2017-09-09T17:59:22.148Z,99.90
2017-09-09T18:01:49.633Z,99.90
2017-09-09T18:04:17.077Z,99.90
2017-09-09T18:06:44.531Z,99.90
2017-09-09T18:09:11.989Z,99.90
2017-09-09T18:11:39.478Z,99.90
2017-09-09T18:14:06.926Z,99.90
2017-09-09T18:16:34.383Z,99.90
2017-09-09T18:24:45.734Z,99.90
2017-09-09T18:27:13.186Z,99.90
2017-09-09T18:29:40.675Z,99.90
2017-09-09T18:32:08.116Z,99.90
2017-09-09T18:34:36.340Z,99.90
2017-09-09T18:37:03.785Z,99.90
2017-09-09T18:39:31.233Z,99.90
2017-09-09T18:41:58.672Z,99.90
2017-09-09T18:44:26.893Z,99.90
2017-09-09T18:46:54.338Z,99.90
2017-09-09T18:49:21.784Z,99.90
2017-09-09T18:51:49.228Z,99.90
2017-09-09T18:54:16.685Z,99.90
2017-09-09T18:56:44.388Z,99.90
2017-09-09T18:59:11.901Z,99.90
2017-09-09T19:01:39.385Z,99.90
2017-09-09T19:04:06.863Z,99.90
2017-09-09T19:06:34.319Z,99.90
2017-09-09T19:09:01.793Z,99.90
2017-09-09T19:11:29.262Z,99.90
2017-09-09T19:13:56.727Z,99.90
2017-09-09T19:16:24.185Z,99.90
2017-09-09T19:18:51.673Z,99.90
2017-09-09T19:21:19.152Z,99.90
2017-09-09T19:23:46.631Z,99.90
2017-09-09T19:26:14.857Z,99.90
2017-09-09T19:28:42.320Z,99.90
2017-09-09T19:31:09.822Z,99.90
2017-09-09T19:33:38.025Z,99.90
2017-09-09T19:36:05.475Z,99.90
2017-09-09T19:38:32.922Z,99.90
2017-09-09T19:41:00.374Z,99.90
2017-09-09T19:43:27.831Z,99.90
2017-09-09T19:45:55.294Z,99.90
2017-09-09T19:48:23.510Z,99.90
2017-09-09T19:50:50.963Z,99.90
2017-09-09T19:53:18.418Z,99.90
2017-09-09T19:55:45.906Z,99.90
2017-09-09T19:58:13.329Z,99.90
2017-09-09T20:00:40.802Z,99.90
2017-09-09T20:03:09.009Z,99.90
2017-09-09T20:05:37.218Z,99.90
2017-09-09T20:08:04.671Z,99.90
2017-09-09T20:10:32.171Z,99.90
2017-09-09T20:12:59.638Z,99.90
2017-09-09T20:15:27.089Z,99.90
2017-09-09T20:17:54.561Z,99.90
2017-09-09T20:20:22.016Z,99.90
2017-09-09T20:22:49.494Z,99.90
2017-09-09T20:25:17.706Z,99.90
2017-09-09T20:27:45.173Z,99.90
2017-09-09T20:30:12.632Z,99.90
2017-09-09T20:32:44.042Z,99.90
2017-09-09T20:35:11.548Z,99.90
2017-09-09T20:37:39.032Z,99.90
2017-09-09T20:40:06.522Z,99.90
2017-09-09T20:42:34.005Z,99.90
2017-09-09T20:45:01.457Z,99.90
2017-09-09T20:47:28.905Z,99.90
2017-09-09T20:49:56.393Z,99.90
2017-09-09T20:52:24.611Z,99.90
2017-09-09T20:54:52.053Z,99.90
2017-09-09T20:57:20.261Z,99.90
2017-09-09T20:59:47.736Z,99.90
2017-09-09T21:02:15.181Z,99.90
2017-09-09T21:04:42.644Z,99.90
2017-09-09T21:07:10.108Z,99.90
2017-09-09T21:12:12.167Z,99.90
2017-09-09T21:14:39.629Z,99.90
2017-09-09T21:17:07.087Z,99.90
2017-09-09T21:19:34.540Z,99.90
2017-09-09T21:22:02.000Z,99.90
2017-09-09T21:24:29.474Z,99.90
2017-09-09T21:26:56.931Z,99.90
2017-09-09T21:29:24.382Z,99.90
2017-09-09T21:31:51.832Z,99.90
2017-09-09T21:34:19.290Z,99.90
2017-09-09T21:36:46.750Z,99.90
2017-09-09T21:39:14.202Z,99.90
2017-09-09T21:41:41.650Z,99.90
2017-09-09T21:44:09.119Z,99.90
2017-09-09T21:46:36.561Z,99.90
2017-09-09T21:49:04.029Z,99.90
2017-09-09T21:51:31.490Z,99.90
2017-09-09T21:53:58.945Z,99.90
2017-09-09T21:56:26.396Z,99.90
2017-09-09T21:58:53.851Z,99.90
2017-09-09T22:01:21.305Z,99.90
2017-09-09T22:03:48.759Z,99.90
2017-09-09T22:06:16.232Z,99.90
2017-09-09T22:08:43.663Z,99.90
2017-09-09T22:11:11.118Z,99.90
2017-09-09T22:13:38.570Z,99.90
2017-09-09T22:16:06.070Z,99.90
2017-09-09T22:18:33.607Z,99.90
2017-09-09T22:21:01.126Z,99.90
2017-09-09T22:23:29.401Z,99.90
2017-09-09T22:25:57.675Z,99.90
2017-09-09T22:28:25.162Z,99.90
2017-09-09T22:30:52.639Z,99.90
2017-09-09T22:33:20.176Z,99.90
2017-09-09T22:35:47.674Z,99.90
2017-09-09T22:38:15.222Z,99.90
2017-09-09T22:40:42.709Z,99.90
2017-09-09T22:43:10.270Z,99.90
2017-09-09T22:45:37.790Z,99.90
2017-09-09T22:48:05.328Z,99.90
2017-09-09T22:50:32.829Z,99.90
2017-09-09T22:53:00.368Z,99.90
2017-09-09T22:55:27.900Z,99.90
2017-09-09T22:57:55.394Z,99.90
2017-09-09T23:00:22.933Z,99.90
2017-09-09T23:02:50.470Z,99.90
2017-09-09T23:05:18.045Z,99.90
2017-09-09T23:07:45.545Z,99.90
2017-09-09T23:10:13.031Z,99.90
2017-09-09T23:12:41.286Z,99.90
2017-09-09T23:15:08.783Z,99.90
2017-09-09T23:17:36.257Z,99.90
2017-09-09T23:20:03.750Z,99.90
2017-09-09T23:22:31.234Z,99.90
2017-09-09T23:24:59.485Z,99.90
2017-09-09T23:27:26.980Z,99.90
2017-09-09T23:29:54.466Z,99.90
2017-09-09T23:32:21.983Z,99.90
2017-09-09T23:34:49.473Z,99.90
2017-09-09T23:37:17.043Z,99.90
2017-09-09T23:39:44.592Z,99.90
2017-09-09T23:42:12.862Z,99.90
2017-09-09T23:44:40.381Z,99.90
2017-09-09T23:47:07.915Z,99.90
2017-09-09T23:49:35.399Z,99.90
2017-09-09T23:52:02.857Z,99.90
2017-09-09T23:54:31.371Z,99.90
2017-09-09T23:57:01.238Z,99.90
2017-09-09T23:59:51.553Z,99.90
